createdAt,value
2022-09-18T00:00:05.476Z,13.13
2022-09-18T00:03:04.857Z,13.11
2022-09-18T00:05:38.269Z,13.04
2022-09-18T00:08:10.941Z,13.08
2022-09-18T00:10:48.524Z,13.07
2022-09-18T00:13:20.653Z,13.06
2022-09-18T00:15:58.315Z,13.05
2022-09-18T00:18:30.527Z,13.02
2022-09-18T00:21:07.879Z,13.01
2022-09-18T00:23:40.818Z,12.98
2022-09-18T00:26:16.377Z,12.97
2022-09-18T00:28:48.658Z,12.96
2022-09-18T00:31:25.633Z,12.90
2022-09-18T00:33:59.008Z,12.86
2022-09-18T00:36:31.684Z,12.85
2022-09-18T00:39:05.327Z,12.83
2022-09-18T00:41:39.160Z,12.80
2022-09-18T00:44:35.670Z,12.70
2022-09-18T00:47:18.396Z,12.76
2022-09-18T00:49:56.228Z,12.65
2022-09-18T00:52:30.864Z,12.71
2022-09-18T00:55:07.586Z,12.69
2022-09-18T00:57:43.155Z,12.70
2022-09-18T01:00:16.529Z,12.65
2022-09-18T01:02:49.911Z,12.58
2022-09-18T01:05:32.726Z,12.56
2022-09-18T01:08:22.255Z,12.51
2022-09-18T01:11:10.176Z,12.49
2022-09-18T01:13:54.414Z,12.51
2022-09-18T01:16:35.333Z,12.49
2022-09-18T01:19:21.361Z,12.51
2022-09-18T01:22:01.906Z,12.47
2022-09-18T01:24:47.189Z,12.43
2022-09-18T01:27:24.323Z,12.50
2022-09-18T01:30:01.553Z,12.58
2022-09-18T01:32:36.887Z,12.55
2022-09-18T01:35:39.453Z,12.55
2022-09-18T01:38:14.757Z,12.37
2022-09-18T01:40:53.180Z,12.46
2022-09-18T01:43:29.106Z,12.45
2022-09-18T01:46:08.346Z,12.35
2022-09-18T01:48:47.164Z,12.35
2022-09-18T01:51:23.987Z,12.36
2022-09-18T01:54:00.765Z,12.35
2022-09-18T01:56:36.657Z,12.28
2022-09-18T01:59:12.780Z,12.28
2022-09-18T02:01:58.377Z,12.29
2022-09-18T02:04:37.302Z,12.33
2022-09-18T02:07:14.719Z,12.34
2022-09-18T02:09:47.721Z,12.33
2022-09-18T02:12:23.309Z,12.31
2022-09-18T02:15:00.479Z,12.20
2022-09-18T02:18:01.318Z,12.14
2022-09-18T02:20:43.419Z,12.21
2022-09-18T02:23:17.458Z,12.23
2022-09-18T02:25:53.961Z,12.22
2022-09-18T02:28:28.387Z,12.24
2022-09-18T02:31:00.507Z,12.27
2022-09-18T02:33:34.450Z,12.24
2022-09-18T02:36:33.164Z,12.19
2022-09-18T02:39:21.092Z,12.20
2022-09-18T02:42:04.043Z,12.20
2022-09-18T02:44:44.656Z,12.20
2022-09-18T02:47:30.794Z,12.19
2022-09-18T02:50:13.056Z,12.10
2022-09-18T02:52:53.152Z,12.26
2022-09-18T02:55:30.014Z,12.25
2022-09-18T02:58:06.883Z,12.16
2022-09-18T03:00:42.692Z,12.21
2022-09-18T03:03:19.188Z,12.19
2022-09-18T03:06:00.471Z,12.13
2022-09-18T03:08:32.879Z,12.23
2022-09-18T03:11:05.506Z,12.24
2022-09-18T03:13:38.030Z,12.20
2022-09-18T03:16:10.379Z,12.15
2022-09-18T03:18:42.811Z,12.14
2022-09-18T03:21:15.321Z,12.09
2022-09-18T03:23:48.143Z,12.13
2022-09-18T03:26:24.116Z,12.05
2022-09-18T03:28:56.203Z,11.98
2022-09-18T03:31:30.433Z,12.22
2022-09-18T03:34:06.064Z,12.24
2022-09-18T03:36:38.381Z,12.15
2022-09-18T03:39:12.019Z,12.17
2022-09-18T03:41:44.336Z,12.13
2022-09-18T03:44:17.803Z,12.09
2022-09-18T03:46:51.215Z,12.11
2022-09-18T03:49:25.670Z,12.11
2022-09-18T03:51:57.995Z,12.12
2022-09-18T03:54:33.668Z,12.20
2022-09-18T03:57:24.261Z,12.13
2022-09-18T04:00:05.289Z,12.15
2022-09-18T04:02:51.004Z,12.13
2022-09-18T04:05:52.337Z,12.15
2022-09-18T04:08:24.344Z,12.24
2022-09-18T04:11:05.782Z,12.31
2022-09-18T04:13:38.530Z,12.30
2022-09-18T04:16:13.390Z,12.30
2022-09-18T04:18:45.778Z,12.37
2022-09-18T04:21:17.872Z,12.31
2022-09-18T04:23:50.529Z,12.36
2022-09-18T04:26:26.418Z,12.36
2022-09-18T04:29:01.398Z,12.32
2022-09-18T04:31:35.329Z,12.44
2022-09-18T04:34:08.577Z,12.52
2022-09-18T04:36:41.024Z,12.60
2022-09-18T04:39:13.791Z,12.51
2022-09-18T04:41:46.965Z,12.48
2022-09-18T04:44:19.299Z,12.47
2022-09-18T04:46:52.077Z,12.62
2022-09-18T04:49:24.418Z,12.56
2022-09-18T04:51:56.552Z,12.60
2022-09-18T04:54:29.632Z,12.47
2022-09-18T04:57:02.420Z,12.35
2022-09-18T04:59:35.171Z,12.46
2022-09-18T05:02:07.781Z,12.48
2022-09-18T05:04:40.094Z,12.59
2022-09-18T05:07:19.129Z,12.62
2022-09-18T05:09:51.746Z,12.59
2022-09-18T05:12:24.284Z,12.60
2022-09-18T05:14:56.606Z,12.66
2022-09-18T05:17:29.882Z,12.67
2022-09-18T05:20:07.845Z,12.76
2022-09-18T05:22:47.459Z,12.77
2022-09-18T05:25:27.410Z,12.78
2022-09-18T05:28:01.887Z,12.80
2022-09-18T05:30:38.449Z,12.84
2022-09-18T05:33:12.096Z,12.82
2022-09-18T05:35:45.297Z,12.82
2022-09-18T05:38:17.276Z,12.99
2022-09-18T05:40:49.717Z,12.84
2022-09-18T05:43:21.993Z,12.95
2022-09-18T05:45:54.623Z,12.89
2022-09-18T05:48:32.602Z,12.95
2022-09-18T05:51:05.327Z,12.96
2022-09-18T05:53:37.994Z,12.96
2022-09-18T05:56:24.525Z,13.09
2022-09-18T05:58:57.328Z,13.13
2022-09-18T06:01:30.383Z,13.13
2022-09-18T06:04:13.946Z,13.15
2022-09-18T06:07:03.369Z,13.16
2022-09-18T06:09:36.021Z,13.34
2022-09-18T06:12:08.687Z,13.29
2022-09-18T06:14:40.985Z,13.28
2022-09-18T06:17:13.096Z,13.20
2022-09-18T06:19:45.822Z,13.21
2022-09-18T06:22:19.116Z,13.22
2022-09-18T06:24:51.181Z,13.26
2022-09-18T06:27:28.463Z,13.27
2022-09-18T06:30:00.812Z,13.22
2022-09-18T06:32:37.031Z,13.16
2022-09-18T06:35:11.609Z,13.18
2022-09-18T06:37:42.241Z,13.28
2022-09-18T06:40:18.986Z,13.30
2022-09-18T06:43:11.808Z,13.15
2022-09-18T06:46:01.969Z,13.28
2022-09-18T06:48:40.841Z,13.28
2022-09-18T06:51:13.584Z,13.34
2022-09-18T06:54:05.456Z,13.37
2022-09-18T06:56:37.865Z,13.50
2022-09-18T06:59:14.571Z,13.46
2022-09-18T07:01:48.696Z,13.45
2022-09-18T07:04:25.129Z,13.59
2022-09-18T07:06:57.121Z,13.60
2022-09-18T07:09:32.748Z,13.58
2022-09-18T07:12:11.390Z,13.61
2022-09-18T07:14:53.830Z,13.50
2022-09-18T07:17:26.726Z,13.61
2022-09-18T07:20:01.013Z,13.62
2022-09-18T07:22:47.214Z,13.55
2022-09-18T07:25:19.864Z,13.50
2022-09-18T07:27:53.137Z,13.62
2022-09-18T07:30:25.874Z,13.62
2022-09-18T07:32:58.214Z,13.71
2022-09-18T07:35:32.889Z,13.80
2022-09-18T07:38:09.735Z,13.76
2022-09-18T07:40:52.740Z,13.82
2022-09-18T07:43:40.372Z,13.92
2022-09-18T07:46:12.473Z,13.87
2022-09-18T07:48:44.801Z,13.87
2022-09-18T07:51:27.862Z,13.92
2022-09-18T07:54:01.573Z,13.99
2022-09-18T07:56:50.056Z,14.00
2022-09-18T07:59:25.592Z,14.02
2022-09-18T08:02:02.343Z,14.01
2022-09-18T08:04:37.279Z,13.98
2022-09-18T08:07:18.932Z,13.90
2022-09-18T08:10:14.450Z,13.97
2022-09-18T08:12:57.335Z,13.96
2022-09-18T08:15:49.019Z,13.97
2022-09-18T08:18:40.028Z,13.76
2022-09-18T08:21:35.792Z,13.85
2022-09-18T08:24:14.102Z,13.95
2022-09-18T08:26:46.660Z,14.01
2022-09-18T08:29:20.064Z,14.03
2022-09-18T08:32:06.535Z,14.03
2022-09-18T08:34:41.982Z,13.95
2022-09-18T08:37:16.083Z,13.97
2022-09-18T08:40:10.762Z,14.03
2022-09-18T08:43:00.761Z,13.97
2022-09-18T08:45:46.103Z,14.04
2022-09-18T08:48:22.488Z,14.06
2022-09-18T08:50:59.936Z,14.14
2022-09-18T08:53:37.662Z,14.27
2022-09-18T08:56:30.204Z,14.34
2022-09-18T08:59:36.828Z,14.33
2022-09-18T09:02:25.453Z,14.30
2022-09-18T09:05:03.825Z,14.27
2022-09-18T09:07:51.570Z,14.27
2022-09-18T09:10:39.160Z,14.31
2022-09-18T09:13:39.135Z,14.28
2022-09-18T09:16:18.131Z,14.23
2022-09-18T09:19:01.365Z,14.18
2022-09-18T09:21:52.305Z,14.22
2022-09-18T09:24:35.793Z,14.24
2022-09-18T09:27:21.000Z,14.20
2022-09-18T09:30:17.865Z,14.17
2022-09-18T09:33:17.607Z,14.26
2022-09-18T09:36:09.466Z,14.32
2022-09-18T09:38:55.597Z,14.36
2022-09-18T09:41:36.190Z,14.18
2022-09-18T09:44:32.633Z,14.27
2022-09-18T09:47:15.766Z,14.14
2022-09-18T09:50:01.332Z,14.24
2022-09-18T09:52:33.823Z,14.17
2022-09-18T09:55:22.192Z,14.08
2022-09-18T09:58:15.791Z,14.11
2022-09-18T10:00:58.256Z,14.06
2022-09-18T10:03:42.442Z,14.24
2022-09-18T10:06:32.863Z,14.37
2022-09-18T10:09:11.272Z,14.36
2022-09-18T10:11:49.239Z,14.46
2022-09-18T10:14:26.550Z,14.48
2022-09-18T10:17:00.570Z,14.47
2022-09-18T10:19:39.306Z,14.44
2022-09-18T10:22:15.923Z,14.37
2022-09-18T10:24:55.668Z,14.48
2022-09-18T10:27:29.783Z,14.44
2022-09-18T10:30:05.759Z,14.48
2022-09-18T10:32:47.766Z,14.47
2022-09-18T10:35:43.711Z,14.23
2022-09-18T10:38:39.852Z,14.27
2022-09-18T10:41:34.402Z,14.32
2022-09-18T10:44:28.253Z,14.22
2022-09-18T10:47:09.967Z,14.32
2022-09-18T10:49:53.046Z,14.33
2022-09-18T10:52:32.746Z,14.31
2022-09-18T10:55:19.499Z,14.22
2022-09-18T10:58:15.629Z,14.24
2022-09-18T11:00:57.602Z,14.22
2022-09-18T11:03:49.791Z,14.18
2022-09-18T11:06:32.282Z,14.24
2022-09-18T11:09:12.828Z,14.32
2022-09-18T11:11:51.529Z,14.30
2022-09-18T11:14:29.788Z,14.46
2022-09-18T11:17:08.707Z,14.44
2022-09-18T11:19:50.155Z,14.60
2022-09-18T11:22:38.778Z,14.77
2022-09-18T11:25:23.550Z,14.95
2022-09-18T11:28:00.048Z,15.08
2022-09-18T11:30:39.020Z,15.19
2022-09-18T11:33:21.756Z,15.41
2022-09-18T11:36:01.235Z,15.55
2022-09-18T11:38:39.622Z,15.57
2022-09-18T11:41:13.617Z,15.58
2022-09-18T11:44:01.047Z,15.61
2022-09-18T11:46:47.667Z,15.58
2022-09-18T11:49:25.027Z,15.57
2022-09-18T11:52:02.141Z,15.52
2022-09-18T11:54:51.652Z,15.76
2022-09-18T11:57:27.171Z,15.75
2022-09-18T12:00:06.688Z,15.74
2022-09-18T12:02:58.556Z,15.75
2022-09-18T12:05:35.340Z,15.66
2022-09-18T12:08:16.207Z,15.82
2022-09-18T12:11:04.562Z,15.93
2022-09-18T12:13:48.695Z,15.86
2022-09-18T12:16:28.499Z,16.01
2022-09-18T12:19:04.557Z,16.34
2022-09-18T12:21:45.979Z,16.50
2022-09-18T12:24:19.093Z,16.85
2022-09-18T12:27:12.062Z,17.06
2022-09-18T12:30:01.182Z,17.30
2022-09-18T12:32:54.266Z,17.34
2022-09-18T12:35:38.966Z,17.48
2022-09-18T12:38:17.058Z,17.50
2022-09-18T12:41:08.441Z,17.39
2022-09-18T12:44:02.846Z,17.25
2022-09-18T12:46:46.846Z,17.18
2022-09-18T12:49:40.075Z,17.38
2022-09-18T12:52:27.458Z,17.49
2022-09-18T12:55:36.639Z,17.46
2022-09-18T12:58:20.651Z,17.44
2022-09-18T13:00:54.540Z,17.53
2022-09-18T13:03:33.394Z,17.66
2022-09-18T13:06:11.051Z,17.64
2022-09-18T13:08:48.054Z,17.71
2022-09-18T13:11:26.229Z,17.76
2022-09-18T13:14:04.714Z,17.95
2022-09-18T13:16:42.237Z,18.01
2022-09-18T13:19:19.741Z,17.93
2022-09-18T13:21:52.746Z,17.85
2022-09-18T13:24:29.720Z,17.54
2022-09-18T13:27:03.521Z,17.36
2022-09-18T13:29:59.112Z,17.48
2022-09-18T13:32:42.948Z,17.56
2022-09-18T13:35:25.496Z,17.45
2022-09-18T13:38:17.691Z,17.19
2022-09-18T13:40:57.878Z,17.17
2022-09-18T13:43:47.036Z,17.12
2022-09-18T13:46:34.607Z,17.17
2022-09-18T13:49:20.448Z,17.16
2022-09-18T13:51:52.763Z,17.23
2022-09-18T13:54:28.948Z,17.24
2022-09-18T13:57:21.453Z,17.32
2022-09-18T14:00:01.803Z,17.19
2022-09-18T14:02:44.487Z,17.32
2022-09-18T14:05:31.858Z,17.44
2022-09-18T14:08:14.538Z,17.52
2022-09-18T14:11:16.971Z,17.46
2022-09-18T14:13:55.611Z,17.37
2022-09-18T14:16:31.991Z,17.41
2022-09-18T14:19:08.453Z,17.55
2022-09-18T14:21:45.604Z,17.54
2022-09-18T14:24:38.939Z,17.41
2022-09-18T14:27:31.180Z,17.41
2022-09-18T14:30:14.461Z,17.40
2022-09-18T14:32:57.121Z,17.41
2022-09-18T14:35:38.158Z,17.43
2022-09-18T14:38:25.086Z,17.40
2022-09-18T14:41:00.603Z,17.45
2022-09-18T14:43:33.023Z,17.25
2022-09-18T14:46:06.816Z,17.16
2022-09-18T14:48:40.449Z,17.22
2022-09-18T14:51:22.633Z,17.18
2022-09-18T14:58:42.796Z,17.06
2022-09-18T15:03:33.984Z,16.98
2022-09-18T15:06:35.209Z,16.76
2022-09-18T15:12:59.436Z,16.64
2022-09-18T15:15:34.771Z,16.61
2022-09-18T15:18:23.847Z,16.62
2022-09-18T15:20:57.323Z,16.48
2022-09-18T15:23:31.848Z,16.40
2022-09-18T15:26:07.027Z,16.33
2022-09-18T15:28:42.211Z,16.15
2022-09-18T15:31:16.170Z,16.21
2022-09-18T15:33:55.161Z,16.30
2022-09-18T15:36:31.939Z,16.29
2022-09-18T15:39:05.874Z,16.18
2022-09-18T15:41:43.135Z,15.97
2022-09-18T15:44:46.309Z,15.90
2022-09-18T15:47:37.127Z,16.06
2022-09-18T15:50:34.075Z,16.14
2022-09-18T15:53:24.204Z,15.98
2022-09-18T15:56:00.163Z,15.92
2022-09-18T15:58:58.008Z,15.67
2022-09-18T16:01:35.535Z,15.66
2022-09-18T16:04:17.176Z,15.50
2022-09-18T16:06:56.049Z,15.54
2022-09-18T16:09:36.836Z,15.43
2022-09-18T16:12:35.717Z,15.50
2022-09-18T16:15:25.602Z,15.59
2022-09-18T16:18:04.158Z,15.17
2022-09-18T16:21:01.592Z,15.29
2022-09-18T16:23:35.387Z,14.95
2022-09-18T16:26:10.641Z,15.29
2022-09-18T16:28:46.207Z,15.31
2022-09-18T16:31:21.221Z,15.29
2022-09-18T16:33:57.422Z,15.31
2022-09-18T16:36:34.244Z,15.39
2022-09-18T16:39:08.789Z,15.43
2022-09-18T16:41:40.869Z,15.33
2022-09-18T16:44:15.483Z,15.28
2022-09-18T16:46:50.974Z,15.22
2022-09-18T16:49:27.082Z,15.19
2022-09-18T16:51:59.777Z,15.20
2022-09-18T16:54:32.041Z,15.15
2022-09-18T16:57:07.783Z,15.04
2022-09-18T16:59:43.663Z,14.97
2022-09-18T17:02:19.255Z,14.93
2022-09-18T17:04:51.533Z,14.90
2022-09-18T17:07:23.709Z,14.86
2022-09-18T17:09:56.338Z,14.75
2022-09-18T17:12:29.339Z,14.71
2022-09-18T17:15:01.594Z,14.70
2022-09-18T17:17:34.244Z,14.72
2022-09-18T17:20:08.246Z,14.53
2022-09-18T17:22:41.546Z,14.62
2022-09-18T17:25:14.667Z,14.62
2022-09-18T17:27:47.980Z,14.56
2022-09-18T17:30:20.419Z,14.52
2022-09-18T17:32:52.918Z,14.48
2022-09-18T17:35:25.916Z,14.47
2022-09-18T17:37:59.083Z,14.47
2022-09-18T17:40:31.375Z,14.52
2022-09-18T17:43:03.976Z,14.54
2022-09-18T17:45:36.345Z,14.52
2022-09-18T17:48:09.212Z,14.45
2022-09-18T17:50:41.632Z,14.39
2022-09-18T17:53:14.463Z,14.29
2022-09-18T17:55:51.127Z,14.25
2022-09-18T17:58:23.219Z,14.22
2022-09-18T18:00:56.117Z,14.21
2022-09-18T18:03:31.099Z,14.18
2022-09-18T18:06:03.555Z,14.14
2022-09-18T18:08:35.513Z,14.08
2022-09-18T18:11:09.869Z,14.03
2022-09-18T18:13:43.613Z,14.00
2022-09-18T18:16:23.496Z,13.90
2022-09-18T18:18:58.018Z,13.88
2022-09-18T18:21:31.351Z,13.84
2022-09-18T18:24:06.246Z,13.77
2022-09-18T18:26:39.569Z,13.73
2022-09-18T18:29:17.908Z,13.71
2022-09-18T18:31:51.790Z,13.67
2022-09-18T18:34:25.366Z,13.67
2022-09-18T18:36:57.640Z,13.62
2022-09-18T18:39:29.895Z,13.63
2022-09-18T18:42:02.087Z,13.57
2022-09-18T18:44:34.554Z,13.53
2022-09-18T18:47:07.022Z,13.52
2022-09-18T18:49:40.154Z,13.48
2022-09-18T18:52:12.903Z,13.46
2022-09-18T18:54:45.972Z,13.34
2022-09-18T18:57:18.063Z,13.25
2022-09-18T18:59:50.875Z,13.28
2022-09-18T19:02:23.137Z,13.25
2022-09-18T19:05:02.217Z,13.20
2022-09-18T19:07:34.781Z,13.16
2022-09-18T19:10:07.734Z,13.17
2022-09-18T19:12:40.097Z,13.17
2022-09-18T19:15:13.049Z,13.12
2022-09-18T19:17:46.470Z,13.11
2022-09-18T19:20:19.461Z,13.06
2022-09-18T19:22:56.917Z,13.05
2022-09-18T19:25:30.279Z,13.04
2022-09-18T19:28:02.475Z,13.02
2022-09-18T19:30:38.691Z,13.04
2022-09-18T19:33:16.085Z,13.05
2022-09-18T19:35:51.466Z,13.05
2022-09-18T19:38:23.609Z,13.04
2022-09-18T19:40:56.064Z,13.03
2022-09-18T19:43:32.514Z,13.01
2022-09-18T19:46:05.384Z,13.07
2022-09-18T19:48:37.879Z,13.20
2022-09-18T19:51:10.399Z,13.13
2022-09-18T19:53:42.623Z,13.21
2022-09-18T19:56:33.388Z,13.18
2022-09-18T19:59:10.206Z,13.13
2022-09-18T20:01:42.497Z,13.07
2022-09-18T20:04:14.732Z,13.07
2022-09-18T20:06:47.248Z,12.98
2022-09-18T20:09:19.469Z,12.90
2022-09-18T20:11:51.516Z,12.72
2022-09-18T20:14:24.305Z,12.86
2022-09-18T20:16:57.700Z,12.84
2022-09-18T20:19:30.830Z,12.82
2022-09-18T20:22:03.069Z,12.81
2022-09-18T20:24:35.940Z,12.81
2022-09-18T20:27:08.407Z,12.79
2022-09-18T20:29:41.336Z,12.79
2022-09-18T20:32:13.454Z,12.80
2022-09-18T20:34:47.874Z,12.93
2022-09-18T20:37:20.182Z,12.82
2022-09-18T20:39:52.815Z,12.93
2022-09-18T20:42:25.790Z,12.92
2022-09-18T20:45:02.444Z,12.84
2022-09-18T20:47:36.372Z,12.81
2022-09-18T20:50:11.771Z,12.79
2022-09-18T20:52:45.404Z,12.76
2022-09-18T20:55:18.726Z,12.72
2022-09-18T20:57:51.545Z,12.78
2022-09-18T21:00:23.900Z,12.84
2022-09-18T21:02:56.983Z,12.87
2022-09-18T21:05:29.057Z,12.86
2022-09-18T21:08:03.851Z,12.85
2022-09-18T21:10:46.724Z,12.77
2022-09-18T21:13:20.099Z,12.74
2022-09-18T21:15:52.665Z,12.77
2022-09-18T21:18:24.695Z,12.77
2022-09-18T21:21:05.722Z,12.78
2022-09-18T21:23:58.535Z,12.81
2022-09-18T21:26:33.225Z,12.77
2022-09-18T21:29:04.898Z,12.86
2022-09-18T21:31:42.764Z,12.98
2022-09-18T21:34:17.036Z,12.99
2022-09-18T21:36:49.180Z,13.02
2022-09-18T21:39:21.615Z,13.00
2022-09-18T21:41:53.659Z,12.90
2022-09-18T21:44:27.969Z,12.85
2022-09-18T21:47:02.109Z,12.93
2022-09-18T21:49:36.322Z,12.87
2022-09-18T21:52:09.300Z,12.91
2022-09-18T21:54:41.362Z,12.84
2022-09-18T21:57:14.128Z,13.01
2022-09-18T21:59:46.563Z,12.97
2022-09-18T22:02:20.582Z,12.91
2022-09-18T22:04:55.089Z,12.76
2022-09-18T22:07:27.560Z,12.93
2022-09-18T22:09:59.650Z,12.83
2022-09-18T22:12:32.894Z,12.79
2022-09-18T22:15:05.268Z,12.75
2022-09-18T22:17:38.363Z,12.77
2022-09-18T22:20:11.171Z,12.68
2022-09-18T22:22:43.823Z,12.68
2022-09-18T22:25:16.028Z,12.54
2022-09-18T22:27:48.794Z,12.62
2022-09-18T22:30:21.296Z,12.57
2022-09-18T22:32:53.451Z,12.56
2022-09-18T22:35:25.459Z,12.51
2022-09-18T22:37:57.986Z,12.46
2022-09-18T22:40:30.193Z,12.47
2022-09-18T22:43:02.294Z,12.47
2022-09-18T22:45:34.413Z,12.57
2022-09-18T22:48:06.641Z,12.57
2022-09-18T22:50:38.566Z,12.63
2022-09-18T22:53:10.790Z,12.62
2022-09-18T22:55:43.277Z,12.53
2022-09-18T22:58:15.757Z,12.50
2022-09-18T23:00:48.894Z,12.53
2022-09-18T23:03:21.239Z,12.47
2022-09-18T23:05:53.264Z,12.54
2022-09-18T23:08:25.275Z,12.50
2022-09-18T23:10:57.356Z,12.53
2022-09-18T23:13:29.317Z,12.54
2022-09-18T23:16:04.072Z,12.49
2022-09-18T23:18:36.572Z,12.44
2022-09-18T23:21:11.543Z,12.37
2022-09-18T23:23:47.151Z,12.33
2022-09-18T23:26:23.273Z,12.28
2022-09-18T23:28:57.751Z,12.33
2022-09-18T23:31:31.650Z,12.36
2022-09-18T23:34:06.373Z,12.36
2022-09-18T23:36:37.952Z,12.38
2022-09-18T23:39:13.222Z,12.32
2022-09-18T23:41:46.366Z,12.36
2022-09-18T23:44:20.405Z,12.37
2022-09-18T23:46:52.940Z,12.27
2022-09-18T23:49:24.960Z,12.10
2022-09-18T23:51:57.362Z,12.01
2022-09-18T23:54:31.241Z,12.04
2022-09-18T23:57:03.239Z,12.01
2022-09-18T23:59:35.763Z,11.98
